sensor_id;sensor_type;location;lat;lon;timestamp;temperature;humidity
16263;DHT22;8239;48.594;8.598;2022-11-20T00:01:05;1.60;99.90
16263;DHT22;8239;48.594;8.598;2022-11-20T00:03:32;1.60;99.90
16263;DHT22;8239;48.594;8.598;2022-11-20T00:06:00;1.60;99.90
16263;DHT22;8239;48.594;8.598;2022-11-20T00:08:37;1.60;99.90
16263;DHT22;8239;48.594;8.598;2022-11-20T00:11:05;1.60;99.90
16263;DHT22;8239;48.594;8.598;2022-11-20T00:13:32;1.60;99.90
16263;DHT22;8239;48.594;8.598;2022-11-20T00:16:00;1.50;99.90
16263;DHT22;8239;48.594;8.598;2022-11-20T00:18:28;1.40;99.90
16263;DHT22;8239;48.594;8.598;2022-11-20T00:21:00;1.40;99.90
16263;DHT22;8239;48.594;8.598;2022-11-20T00:23:29;1.30;99.90
16263;DHT22;8239;48.594;8.598;2022-11-20T00:25:56;1.20;99.90
16263;DHT22;8239;48.594;8.598;2022-11-20T00:28:23;1.10;99.90
16263;DHT22;8239;48.594;8.598;2022-11-20T00:30:49;1.10;99.90
16263;DHT22;8239;48.594;8.598;2022-11-20T00:33:16;1.10;99.90
16263;DHT22;8239;48.594;8.598;2022-11-20T00:35:43;1.00;99.90
16263;DHT22;8239;48.594;8.598;2022-11-20T00:38:10;1.00;99.90
16263;DHT22;8239;48.594;8.598;2022-11-20T00:40:39;0.90;99.90
16263;DHT22;8239;48.594;8.598;2022-11-20T00:43:05;0.90;99.90
16263;DHT22;8239;48.594;8.598;2022-11-20T00:45:32;0.80;99.90
16263;DHT22;8239;48.594;8.598;2022-11-20T00:47:59;0.70;99.90
16263;DHT22;8239;48.594;8.598;2022-11-20T00:50:26;0.60;99.90
16263;DHT22;8239;48.594;8.598;2022-11-20T00:52:53;0.60;99.90
16263;DHT22;8239;48.594;8.598;2022-11-20T00:55:20;0.50;99.90
16263;DHT22;8239;48.594;8.598;2022-11-20T00:57:48;0.50;99.90
16263;DHT22;8239;48.594;8.598;2022-11-20T01:00:16;0.40;99.90
16263;DHT22;8239;48.594;8.598;2022-11-20T01:02:43;0.40;99.90
16263;DHT22;8239;48.594;8.598;2022-11-20T01:05:10;0.40;99.90
16263;DHT22;8239;48.594;8.598;2022-11-20T01:07:37;0.30;99.90
16263;DHT22;8239;48.594;8.598;2022-11-20T01:10:05;0.30;99.90
16263;DHT22;8239;48.594;8.598;2022-11-20T01:12:32;0.30;99.90
16263;DHT22;8239;48.594;8.598;2022-11-20T01:15:00;0.30;99.90
16263;DHT22;8239;48.594;8.598;2022-11-20T01:17:27;0.30;99.90
16263;DHT22;8239;48.594;8.598;2022-11-20T01:19:54;0.30;99.90
16263;DHT22;8239;48.594;8.598;2022-11-20T01:22:21;0.30;99.90
16263;DHT22;8239;48.594;8.598;2022-11-20T01:24:48;0.30;99.90
16263;DHT22;8239;48.594;8.598;2022-11-20T01:27:15;0.30;99.90
16263;DHT22;8239;48.594;8.598;2022-11-20T01:29:42;0.30;99.90
16263;DHT22;8239;48.594;8.598;2022-11-20T01:32:10;0.20;99.90
16263;DHT22;8239;48.594;8.598;2022-11-20T01:34:37;0.20;99.90
16263;DHT22;8239;48.594;8.598;2022-11-20T01:37:04;0.20;99.90
16263;DHT22;8239;48.594;8.598;2022-11-20T01:39:31;0.20;99.90
16263;DHT22;8239;48.594;8.598;2022-11-20T01:41:58;0.20;99.90
16263;DHT22;8239;48.594;8.598;2022-11-20T01:44:50;0.30;99.90
16263;DHT22;8239;48.594;8.598;2022-11-20T01:47:21;0.30;99.90
16263;DHT22;8239;48.594;8.598;2022-11-20T01:49:54;0.30;99.90
16263;DHT22;8239;48.594;8.598;2022-11-20T01:52:26;0.40;99.90
16263;DHT22;8239;48.594;8.598;2022-11-20T01:54:57;0.50;99.90
16263;DHT22;8239;48.594;8.598;2022-11-20T01:57:28;0.50;99.90
16263;DHT22;8239;48.594;8.598;2022-11-20T02:00:00;0.50;99.90
16263;DHT22;8239;48.594;8.598;2022-11-20T02:02:29;0.60;99.90
16263;DHT22;8239;48.594;8.598;2022-11-20T02:05:00;0.70;99.90
16263;DHT22;8239;48.594;8.598;2022-11-20T02:07:30;0.80;99.90
16263;DHT22;8239;48.594;8.598;2022-11-20T02:09:57;0.70;99.90
16263;DHT22;8239;48.594;8.598;2022-11-20T02:12:25;0.70;99.90
16263;DHT22;8239;48.594;8.598;2022-11-20T02:15:09;0.60;99.90
16263;DHT22;8239;48.594;8.598;2022-11-20T02:17:38;0.50;99.90
16263;DHT22;8239;48.594;8.598;2022-11-20T02:20:06;0.40;99.90
16263;DHT22;8239;48.594;8.598;2022-11-20T02:22:41;0.40;99.90
16263;DHT22;8239;48.594;8.598;2022-11-20T02:25:15;0.30;99.90
16263;DHT22;8239;48.594;8.598;2022-11-20T02:27:43;0.30;99.90
16263;DHT22;8239;48.594;8.598;2022-11-20T02:30:11;0.30;99.90
16263;DHT22;8239;48.594;8.598;2022-11-20T02:32:39;0.30;99.90
16263;DHT22;8239;48.594;8.598;2022-11-20T02:35:07;0.30;99.90
16263;DHT22;8239;48.594;8.598;2022-11-20T02:37:38;0.30;99.90
16263;DHT22;8239;48.594;8.598;2022-11-20T02:40:07;0.40;99.90
16263;DHT22;8239;48.594;8.598;2022-11-20T02:42:37;0.40;99.90
16263;DHT22;8239;48.594;8.598;2022-11-20T02:45:04;0.40;99.90
16263;DHT22;8239;48.594;8.598;2022-11-20T02:47:39;0.30;99.90
16263;DHT22;8239;48.594;8.598;2022-11-20T02:50:07;0.30;99.90
16263;DHT22;8239;48.594;8.598;2022-11-20T02:52:34;0.20;99.90
16263;DHT22;8239;48.594;8.598;2022-11-20T02:55:02;0.20;99.90
16263;DHT22;8239;48.594;8.598;2022-11-20T02:57:29;0.20;99.90
16263;DHT22;8239;48.594;8.598;2022-11-20T02:59:57;0.30;99.90
16263;DHT22;8239;48.594;8.598;2022-11-20T03:02:25;0.30;99.90
16263;DHT22;8239;48.594;8.598;2022-11-20T03:04:52;0.40;99.90
16263;DHT22;8239;48.594;8.598;2022-11-20T03:07:19;0.60;99.90
16263;DHT22;8239;48.594;8.598;2022-11-20T03:09:46;0.80;99.90
16263;DHT22;8239;48.594;8.598;2022-11-20T03:12:14;1.00;99.90
16263;DHT22;8239;48.594;8.598;2022-11-20T03:14:44;1.20;99.90
16263;DHT22;8239;48.594;8.598;2022-11-20T03:17:12;1.40;99.90
16263;DHT22;8239;48.594;8.598;2022-11-20T03:19:39;1.50;99.90
16263;DHT22;8239;48.594;8.598;2022-11-20T03:22:06;1.60;99.90
16263;DHT22;8239;48.594;8.598;2022-11-20T03:24:34;1.70;99.90
16263;DHT22;8239;48.594;8.598;2022-11-20T03:27:01;1.90;99.90
16263;DHT22;8239;48.594;8.598;2022-11-20T03:29:28;1.90;99.90
16263;DHT22;8239;48.594;8.598;2022-11-20T03:31:55;1.90;99.90
16263;DHT22;8239;48.594;8.598;2022-11-20T03:34:24;1.90;99.90
16263;DHT22;8239;48.594;8.598;2022-11-20T03:36:51;1.90;99.90
16263;DHT22;8239;48.594;8.598;2022-11-20T03:39:18;1.80;99.90
16263;DHT22;8239;48.594;8.598;2022-11-20T03:41:45;1.80;99.90
16263;DHT22;8239;48.594;8.598;2022-11-20T03:44:12;1.80;99.90
16263;DHT22;8239;48.594;8.598;2022-11-20T03:46:39;1.80;99.90
16263;DHT22;8239;48.594;8.598;2022-11-20T03:49:06;1.80;99.90
16263;DHT22;8239;48.594;8.598;2022-11-20T03:51:36;1.80;99.90
16263;DHT22;8239;48.594;8.598;2022-11-20T03:54:05;1.90;99.90
16263;DHT22;8239;48.594;8.598;2022-11-20T03:56:34;2.00;99.90
16263;DHT22;8239;48.594;8.598;2022-11-20T03:59:02;2.00;99.90
16263;DHT22;8239;48.594;8.598;2022-11-20T04:01:31;2.00;99.90
16263;DHT22;8239;48.594;8.598;2022-11-20T04:03:59;2.00;99.90
16263;DHT22;8239;48.594;8.598;2022-11-20T04:06:28;1.90;99.90
16263;DHT22;8239;48.594;8.598;2022-11-20T04:08:57;1.90;99.90
16263;DHT22;8239;48.594;8.598;2022-11-20T04:11:27;1.90;99.90
16263;DHT22;8239;48.594;8.598;2022-11-20T04:13:56;1.90;99.90
16263;DHT22;8239;48.594;8.598;2022-11-20T04:16:25;2.10;99.90
16263;DHT22;8239;48.594;8.598;2022-11-20T04:18:53;2.20;99.90
16263;DHT22;8239;48.594;8.598;2022-11-20T04:21:20;2.40;99.90
16263;DHT22;8239;48.594;8.598;2022-11-20T04:23:47;2.50;99.90
16263;DHT22;8239;48.594;8.598;2022-11-20T04:26:16;2.60;99.90
16263;DHT22;8239;48.594;8.598;2022-11-20T04:28:43;2.70;99.90
16263;DHT22;8239;48.594;8.598;2022-11-20T04:31:18;2.80;99.90
16263;DHT22;8239;48.594;8.598;2022-11-20T04:33:45;2.90;99.90
16263;DHT22;8239;48.594;8.598;2022-11-20T04:36:15;3.00;99.90
16263;DHT22;8239;48.594;8.598;2022-11-20T04:38:43;3.20;99.90
16263;DHT22;8239;48.594;8.598;2022-11-20T04:41:16;3.30;99.90
16263;DHT22;8239;48.594;8.598;2022-11-20T04:43:47;3.30;99.90
16263;DHT22;8239;48.594;8.598;2022-11-20T04:46:15;3.40;99.90
16263;DHT22;8239;48.594;8.598;2022-11-20T04:48:43;3.50;99.90
16263;DHT22;8239;48.594;8.598;2022-11-20T04:51:10;3.50;99.90
16263;DHT22;8239;48.594;8.598;2022-11-20T04:53:38;3.60;99.90
16263;DHT22;8239;48.594;8.598;2022-11-20T04:56:06;3.60;99.90
16263;DHT22;8239;48.594;8.598;2022-11-20T04:58:35;3.70;99.90
16263;DHT22;8239;48.594;8.598;2022-11-20T05:01:03;3.70;99.90
16263;DHT22;8239;48.594;8.598;2022-11-20T05:03:30;3.70;99.90
16263;DHT22;8239;48.594;8.598;2022-11-20T05:06:00;3.70;99.90
16263;DHT22;8239;48.594;8.598;2022-11-20T05:08:27;3.70;99.90
16263;DHT22;8239;48.594;8.598;2022-11-20T05:10:58;3.70;99.90
16263;DHT22;8239;48.594;8.598;2022-11-20T05:13:26;3.70;99.90
16263;DHT22;8239;48.594;8.598;2022-11-20T05:15:55;3.70;99.90
16263;DHT22;8239;48.594;8.598;2022-11-20T05:18:28;3.70;99.90
16263;DHT22;8239;48.594;8.598;2022-11-20T05:20:56;3.70;99.90
16263;DHT22;8239;48.594;8.598;2022-11-20T05:23:24;3.70;99.90
16263;DHT22;8239;48.594;8.598;2022-11-20T05:25:52;3.70;99.90
16263;DHT22;8239;48.594;8.598;2022-11-20T05:28:20;3.70;99.90
16263;DHT22;8239;48.594;8.598;2022-11-20T05:30:47;3.70;99.90
16263;DHT22;8239;48.594;8.598;2022-11-20T05:33:16;3.70;99.90
16263;DHT22;8239;48.594;8.598;2022-11-20T05:35:43;3.70;99.90
16263;DHT22;8239;48.594;8.598;2022-11-20T05:38:10;3.60;99.90
16263;DHT22;8239;48.594;8.598;2022-11-20T05:40:37;3.60;99.90
16263;DHT22;8239;48.594;8.598;2022-11-20T05:43:04;3.60;99.90
16263;DHT22;8239;48.594;8.598;2022-11-20T05:45:31;3.60;99.90
16263;DHT22;8239;48.594;8.598;2022-11-20T05:47:59;3.60;99.90
16263;DHT22;8239;48.594;8.598;2022-11-20T05:50:28;3.60;99.90
16263;DHT22;8239;48.594;8.598;2022-11-20T05:52:58;3.60;99.90
16263;DHT22;8239;48.594;8.598;2022-11-20T05:55:26;3.60;99.90
16263;DHT22;8239;48.594;8.598;2022-11-20T05:57:53;3.60;99.90
16263;DHT22;8239;48.594;8.598;2022-11-20T06:00:20;3.60;99.90
16263;DHT22;8239;48.594;8.598;2022-11-20T06:02:48;3.60;99.90
16263;DHT22;8239;48.594;8.598;2022-11-20T06:05:15;3.60;99.90
16263;DHT22;8239;48.594;8.598;2022-11-20T06:07:43;3.60;99.90
16263;DHT22;8239;48.594;8.598;2022-11-20T06:10:10;3.60;99.90
16263;DHT22;8239;48.594;8.598;2022-11-20T06:12:38;3.60;99.90
16263;DHT22;8239;48.594;8.598;2022-11-20T06:15:06;3.60;99.90
16263;DHT22;8239;48.594;8.598;2022-11-20T06:17:33;3.60;99.90
16263;DHT22;8239;48.594;8.598;2022-11-20T06:20:00;3.60;99.90
16263;DHT22;8239;48.594;8.598;2022-11-20T06:22:27;3.60;99.90
16263;DHT22;8239;48.594;8.598;2022-11-20T06:24:55;3.60;99.90
16263;DHT22;8239;48.594;8.598;2022-11-20T06:27:22;3.60;99.90
16263;DHT22;8239;48.594;8.598;2022-11-20T06:29:49;3.70;99.90
16263;DHT22;8239;48.594;8.598;2022-11-20T06:32:17;3.70;99.90
16263;DHT22;8239;48.594;8.598;2022-11-20T06:34:44;3.70;99.90
16263;DHT22;8239;48.594;8.598;2022-11-20T06:37:11;3.70;99.90
16263;DHT22;8239;48.594;8.598;2022-11-20T06:39:38;3.70;99.90
16263;DHT22;8239;48.594;8.598;2022-11-20T06:42:07;3.70;99.90
16263;DHT22;8239;48.594;8.598;2022-11-20T06:44:34;3.70;99.90
16263;DHT22;8239;48.594;8.598;2022-11-20T06:47:02;3.70;99.90
16263;DHT22;8239;48.594;8.598;2022-11-20T06:49:32;3.80;99.90
16263;DHT22;8239;48.594;8.598;2022-11-20T06:52:00;3.80;99.90
16263;DHT22;8239;48.594;8.598;2022-11-20T06:54:27;3.80;99.90
16263;DHT22;8239;48.594;8.598;2022-11-20T06:56:57;3.80;99.90
16263;DHT22;8239;48.594;8.598;2022-11-20T06:59:35;3.90;99.90
16263;DHT22;8239;48.594;8.598;2022-11-20T07:02:03;3.90;99.90
16263;DHT22;8239;48.594;8.598;2022-11-20T07:04:33;4.10;99.90
16263;DHT22;8239;48.594;8.598;2022-11-20T07:07:07;4.20;99.90
16263;DHT22;8239;48.594;8.598;2022-11-20T07:09:35;4.20;99.90
16263;DHT22;8239;48.594;8.598;2022-11-20T07:12:02;4.30;99.90
16263;DHT22;8239;48.594;8.598;2022-11-20T07:14:29;4.30;99.90
16263;DHT22;8239;48.594;8.598;2022-11-20T07:16:58;4.30;99.90
16263;DHT22;8239;48.594;8.598;2022-11-20T07:19:25;4.40;99.90
16263;DHT22;8239;48.594;8.598;2022-11-20T07:21:52;4.40;99.90
16263;DHT22;8239;48.594;8.598;2022-11-20T07:24:20;4.40;99.90
16263;DHT22;8239;48.594;8.598;2022-11-20T07:26:47;4.50;99.90
16263;DHT22;8239;48.594;8.598;2022-11-20T07:29:14;4.50;99.90
16263;DHT22;8239;48.594;8.598;2022-11-20T07:31:42;4.40;99.90
16263;DHT22;8239;48.594;8.598;2022-11-20T07:34:10;4.40;99.90
16263;DHT22;8239;48.594;8.598;2022-11-20T07:36:38;4.40;99.90
16263;DHT22;8239;48.594;8.598;2022-11-20T07:39:05;4.40;99.90
16263;DHT22;8239;48.594;8.598;2022-11-20T07:41:33;4.40;99.90
16263;DHT22;8239;48.594;8.598;2022-11-20T07:44:00;4.40;99.90
16263;DHT22;8239;48.594;8.598;2022-11-20T07:46:28;4.40;99.90
16263;DHT22;8239;48.594;8.598;2022-11-20T07:48:55;4.40;99.90
16263;DHT22;8239;48.594;8.598;2022-11-20T07:51:24;4.40;99.90
16263;DHT22;8239;48.594;8.598;2022-11-20T07:54:01;4.40;99.90
16263;DHT22;8239;48.594;8.598;2022-11-20T07:56:28;4.50;99.90
16263;DHT22;8239;48.594;8.598;2022-11-20T07:58:55;4.60;99.90
16263;DHT22;8239;48.594;8.598;2022-11-20T08:01:25;4.70;99.90
16263;DHT22;8239;48.594;8.598;2022-11-20T08:03:52;4.80;99.90
16263;DHT22;8239;48.594;8.598;2022-11-20T08:06:19;4.90;99.90
16263;DHT22;8239;48.594;8.598;2022-11-20T08:08:47;5.00;99.90
16263;DHT22;8239;48.594;8.598;2022-11-20T08:11:15;5.00;99.90
16263;DHT22;8239;48.594;8.598;2022-11-20T08:13:59;5.00;99.90
16263;DHT22;8239;48.594;8.598;2022-11-20T08:16:42;4.90;99.90
16263;DHT22;8239;48.594;8.598;2022-11-20T08:19:09;4.90;99.90
16263;DHT22;8239;48.594;8.598;2022-11-20T08:21:37;4.80;99.90
16263;DHT22;8239;48.594;8.598;2022-11-20T08:24:06;4.70;99.90
16263;DHT22;8239;48.594;8.598;2022-11-20T08:26:34;4.70;99.90
16263;DHT22;8239;48.594;8.598;2022-11-20T08:29:01;4.60;99.90
16263;DHT22;8239;48.594;8.598;2022-11-20T08:31:31;4.60;99.90
16263;DHT22;8239;48.594;8.598;2022-11-20T08:34:02;4.60;99.90
16263;DHT22;8239;48.594;8.598;2022-11-20T08:36:32;4.60;99.90
16263;DHT22;8239;48.594;8.598;2022-11-20T08:38:59;4.60;99.90
16263;DHT22;8239;48.594;8.598;2022-11-20T08:41:29;4.60;99.90
16263;DHT22;8239;48.594;8.598;2022-11-20T08:43:59;4.70;99.90
16263;DHT22;8239;48.594;8.598;2022-11-20T08:46:30;4.70;99.90
16263;DHT22;8239;48.594;8.598;2022-11-20T08:48:58;4.70;99.90
16263;DHT22;8239;48.594;8.598;2022-11-20T08:51:26;4.80;99.90
16263;DHT22;8239;48.594;8.598;2022-11-20T08:53:53;4.80;99.90
16263;DHT22;8239;48.594;8.598;2022-11-20T08:56:20;4.80;99.90
16263;DHT22;8239;48.594;8.598;2022-11-20T08:58:49;4.80;99.90
16263;DHT22;8239;48.594;8.598;2022-11-20T09:01:17;4.80;99.90
16263;DHT22;8239;48.594;8.598;2022-11-20T09:03:44;4.70;99.90
16263;DHT22;8239;48.594;8.598;2022-11-20T09:06:11;4.70;99.90
16263;DHT22;8239;48.594;8.598;2022-11-20T09:08:38;4.60;99.90
16263;DHT22;8239;48.594;8.598;2022-11-20T09:11:06;4.60;99.90
16263;DHT22;8239;48.594;8.598;2022-11-20T09:13:34;4.60;99.90
16263;DHT22;8239;48.594;8.598;2022-11-20T09:16:05;4.60;99.90
16263;DHT22;8239;48.594;8.598;2022-11-20T09:18:33;4.60;99.90
16263;DHT22;8239;48.594;8.598;2022-11-20T09:21:03;4.60;99.90
16263;DHT22;8239;48.594;8.598;2022-11-20T09:23:32;4.60;99.90
16263;DHT22;8239;48.594;8.598;2022-11-20T09:26:02;4.60;99.90
16263;DHT22;8239;48.594;8.598;2022-11-20T09:28:29;4.60;99.90
16263;DHT22;8239;48.594;8.598;2022-11-20T09:30:56;4.70;99.90
16263;DHT22;8239;48.594;8.598;2022-11-20T09:33:25;4.70;99.90
16263;DHT22;8239;48.594;8.598;2022-11-20T09:35:52;4.70;99.90
16263;DHT22;8239;48.594;8.598;2022-11-20T09:38:19;4.70;99.90
16263;DHT22;8239;48.594;8.598;2022-11-20T09:40:52;4.80;99.90
16263;DHT22;8239;48.594;8.598;2022-11-20T09:43:29;4.80;99.90
16263;DHT22;8239;48.594;8.598;2022-11-20T09:46:08;4.90;99.90
16263;DHT22;8239;48.594;8.598;2022-11-20T09:49:09;5.00;99.90
16263;DHT22;8239;48.594;8.598;2022-11-20T09:51:49;5.00;99.90
16263;DHT22;8239;48.594;8.598;2022-11-20T09:54:19;5.10;99.90
16263;DHT22;8239;48.594;8.598;2022-11-20T09:56:53;5.10;99.90
16263;DHT22;8239;48.594;8.598;2022-11-20T09:59:36;5.10;99.90
16263;DHT22;8239;48.594;8.598;2022-11-20T10:02:16;5.20;99.90
16263;DHT22;8239;48.594;8.598;2022-11-20T10:04:51;5.20;99.90
16263;DHT22;8239;48.594;8.598;2022-11-20T10:07:23;5.30;99.90
16263;DHT22;8239;48.594;8.598;2022-11-20T10:09:54;5.40;99.90
16263;DHT22;8239;48.594;8.598;2022-11-20T10:12:27;5.50;99.90
16263;DHT22;8239;48.594;8.598;2022-11-20T10:15:07;5.60;99.90
16263;DHT22;8239;48.594;8.598;2022-11-20T10:20:42;6.60;99.90
16263;DHT22;8239;48.594;8.598;2022-11-20T10:23:37;7.80;99.90
16263;DHT22;8239;48.594;8.598;2022-11-20T10:26:17;9.60;99.90
16263;DHT22;8239;48.594;8.598;2022-11-20T10:28:56;11.30;99.90
16263;DHT22;8239;48.594;8.598;2022-11-20T10:31:31;12.20;99.90
16263;DHT22;8239;48.594;8.598;2022-11-20T10:34:01;12.00;98.40
16263;DHT22;8239;48.594;8.598;2022-11-20T10:36:35;11.30;98.20
16263;DHT22;8239;48.594;8.598;2022-11-20T10:39:11;10.40;98.20
16263;DHT22;8239;48.594;8.598;2022-11-20T10:41:42;9.70;99.40
16263;DHT22;8239;48.594;8.598;2022-11-20T10:44:15;8.90;99.90
16263;DHT22;8239;48.594;8.598;2022-11-20T10:47:04;8.30;99.90
16263;DHT22;8239;48.594;8.598;2022-11-20T10:49:34;7.80;99.90
16263;DHT22;8239;48.594;8.598;2022-11-20T10:52:11;7.50;99.90
16263;DHT22;8239;48.594;8.598;2022-11-20T10:54:46;7.30;99.90
16263;DHT22;8239;48.594;8.598;2022-11-20T10:57:22;7.10;99.90
16263;DHT22;8239;48.594;8.598;2022-11-20T11:00:01;7.10;99.90
16263;DHT22;8239;48.594;8.598;2022-11-20T11:02:34;7.70;99.90
16263;DHT22;8239;48.594;8.598;2022-11-20T11:05:11;9.20;99.90
16263;DHT22;8239;48.594;8.598;2022-11-20T11:07:44;10.60;99.90
16263;DHT22;8239;48.594;8.598;2022-11-20T11:10:16;11.60;99.90
16263;DHT22;8239;48.594;8.598;2022-11-20T11:12:45;11.90;97.30
16263;DHT22;8239;48.594;8.598;2022-11-20T11:15:23;12.40;96.70
16263;DHT22;8239;48.594;8.598;2022-11-20T11:17:51;12.70;95.80
16263;DHT22;8239;48.594;8.598;2022-11-20T11:20:19;12.80;94.20
16263;DHT22;8239;48.594;8.598;2022-11-20T11:22:49;13.50;94.40
16263;DHT22;8239;48.594;8.598;2022-11-20T11:25:22;13.80;90.80
16263;DHT22;8239;48.594;8.598;2022-11-20T11:27:50;13.40;88.10
16263;DHT22;8239;48.594;8.598;2022-11-20T11:30:19;12.80;86.80
16263;DHT22;8239;48.594;8.598;2022-11-20T11:32:47;12.20;87.30
16263;DHT22;8239;48.594;8.598;2022-11-20T11:35:23;11.70;90.10
16263;DHT22;8239;48.594;8.598;2022-11-20T11:37:53;11.50;91.40
16263;DHT22;8239;48.594;8.598;2022-11-20T11:40:22;11.30;91.60
16263;DHT22;8239;48.594;8.598;2022-11-20T11:42:55;11.00;91.50
16263;DHT22;8239;48.594;8.598;2022-11-20T11:45:23;10.70;91.80
16263;DHT22;8239;48.594;8.598;2022-11-20T11:47:51;10.70;93.50
16263;DHT22;8239;48.594;8.598;2022-11-20T11:50:21;11.30;95.40
16263;DHT22;8239;48.594;8.598;2022-11-20T11:52:56;12.40;93.80
16263;DHT22;8239;48.594;8.598;2022-11-20T11:55:31;13.20;89.20
16263;DHT22;8239;48.594;8.598;2022-11-20T11:58:09;13.10;81.00
16263;DHT22;8239;48.594;8.598;2022-11-20T12:00:40;12.30;81.00
16263;DHT22;8239;48.594;8.598;2022-11-20T12:03:14;11.90;85.50
16263;DHT22;8239;48.594;8.598;2022-11-20T12:05:45;11.80;86.00
16263;DHT22;8239;48.594;8.598;2022-11-20T12:08:20;11.40;83.80
16263;DHT22;8239;48.594;8.598;2022-11-20T12:10:52;10.60;84.50
16263;DHT22;8239;48.594;8.598;2022-11-20T12:13:39;9.80;87.60
16263;DHT22;8239;48.594;8.598;2022-11-20T12:16:12;9.00;90.10
16263;DHT22;8239;48.594;8.598;2022-11-20T12:18:40;8.40;91.50
16263;DHT22;8239;48.594;8.598;2022-11-20T12:21:17;8.10;93.90
16263;DHT22;8239;48.594;8.598;2022-11-20T12:24:02;7.90;94.90
16263;DHT22;8239;48.594;8.598;2022-11-20T12:26:44;7.70;95.50
16263;DHT22;8239;48.594;8.598;2022-11-20T12:29:23;7.40;96.20
16263;DHT22;8239;48.594;8.598;2022-11-20T12:32:10;7.50;98.40
16263;DHT22;8239;48.594;8.598;2022-11-20T12:34:46;7.90;99.90
16263;DHT22;8239;48.594;8.598;2022-11-20T12:37:24;8.10;98.50
16263;DHT22;8239;48.594;8.598;2022-11-20T12:40:00;7.90;97.50
16263;DHT22;8239;48.594;8.598;2022-11-20T12:42:39;7.60;97.40
16263;DHT22;8239;48.594;8.598;2022-11-20T12:45:37;7.30;98.20
16263;DHT22;8239;48.594;8.598;2022-11-20T12:51:34;6.70;99.90
16263;DHT22;8239;48.594;8.598;2022-11-20T12:57:06;6.30;99.90
16263;DHT22;8239;48.594;8.598;2022-11-20T12:59:53;6.20;99.90
16263;DHT22;8239;48.594;8.598;2022-11-20T13:02:27;6.10;99.90
16263;DHT22;8239;48.594;8.598;2022-11-20T13:05:19;6.10;99.90
16263;DHT22;8239;48.594;8.598;2022-11-20T13:07:47;6.10;99.90
16263;DHT22;8239;48.594;8.598;2022-11-20T13:10:29;6.00;99.90
16263;DHT22;8239;48.594;8.598;2022-11-20T13:13:04;5.90;99.90
16263;DHT22;8239;48.594;8.598;2022-11-20T13:15:45;5.80;99.90
16263;DHT22;8239;48.594;8.598;2022-11-20T13:18:15;5.80;99.90
16263;DHT22;8239;48.594;8.598;2022-11-20T13:20:43;5.70;99.90
16263;DHT22;8239;48.594;8.598;2022-11-20T13:23:22;5.70;99.90
16263;DHT22;8239;48.594;8.598;2022-11-20T13:25:49;5.70;99.90
16263;DHT22;8239;48.594;8.598;2022-11-20T13:28:29;5.80;99.90
16263;DHT22;8239;48.594;8.598;2022-11-20T13:30:57;6.00;99.90
16263;DHT22;8239;48.594;8.598;2022-11-20T13:33:29;6.30;99.90
16263;DHT22;8239;48.594;8.598;2022-11-20T13:35:58;6.50;99.90
16263;DHT22;8239;48.594;8.598;2022-11-20T13:38:25;6.60;99.90
16263;DHT22;8239;48.594;8.598;2022-11-20T13:40:57;6.50;99.90
16263;DHT22;8239;48.594;8.598;2022-11-20T13:43:47;6.50;99.90
16263;DHT22;8239;48.594;8.598;2022-11-20T13:46:15;6.40;99.90
16263;DHT22;8239;48.594;8.598;2022-11-20T13:48:43;6.30;99.90
16263;DHT22;8239;48.594;8.598;2022-11-20T13:51:18;6.30;99.90
16263;DHT22;8239;48.594;8.598;2022-11-20T13:56:49;6.10;99.90
16263;DHT22;8239;48.594;8.598;2022-11-20T13:59:33;6.10;99.90
16263;DHT22;8239;48.594;8.598;2022-11-20T14:02:02;6.10;99.90
16263;DHT22;8239;48.594;8.598;2022-11-20T14:04:32;6.10;99.90
16263;DHT22;8239;48.594;8.598;2022-11-20T14:07:00;6.10;99.90
16263;DHT22;8239;48.594;8.598;2022-11-20T14:09:29;6.10;99.90
16263;DHT22;8239;48.594;8.598;2022-11-20T14:11:57;6.10;99.90
16263;DHT22;8239;48.594;8.598;2022-11-20T14:14:27;6.00;99.90
16263;DHT22;8239;48.594;8.598;2022-11-20T14:17:05;6.00;99.90
16263;DHT22;8239;48.594;8.598;2022-11-20T14:19:33;5.90;99.90
16263;DHT22;8239;48.594;8.598;2022-11-20T14:22:14;5.80;99.90
16263;DHT22;8239;48.594;8.598;2022-11-20T14:24:42;5.80;99.90
16263;DHT22;8239;48.594;8.598;2022-11-20T14:27:13;5.80;99.90
16263;DHT22;8239;48.594;8.598;2022-11-20T14:29:44;5.80;99.90
16263;DHT22;8239;48.594;8.598;2022-11-20T14:32:15;5.90;99.90
16263;DHT22;8239;48.594;8.598;2022-11-20T14:34:45;6.10;99.90
16263;DHT22;8239;48.594;8.598;2022-11-20T14:37:17;6.30;99.90
16263;DHT22;8239;48.594;8.598;2022-11-20T14:39:50;6.60;99.90
16263;DHT22;8239;48.594;8.598;2022-11-20T14:42:20;6.90;99.90
16263;DHT22;8239;48.594;8.598;2022-11-20T14:44:49;7.10;99.90
16263;DHT22;8239;48.594;8.598;2022-11-20T14:47:20;7.20;99.90
16263;DHT22;8239;48.594;8.598;2022-11-20T14:49:49;7.10;99.90
16263;DHT22;8239;48.594;8.598;2022-11-20T14:52:18;7.10;99.90
16263;DHT22;8239;48.594;8.598;2022-11-20T14:54:46;6.90;99.90
16263;DHT22;8239;48.594;8.598;2022-11-20T14:57:35;6.80;99.90
16263;DHT22;8239;48.594;8.598;2022-11-20T15:00:19;7.20;99.90
16263;DHT22;8239;48.594;8.598;2022-11-20T15:02:49;7.70;99.90
16263;DHT22;8239;48.594;8.598;2022-11-20T15:05:18;7.80;99.90
16263;DHT22;8239;48.594;8.598;2022-11-20T15:07:48;7.60;99.90
16263;DHT22;8239;48.594;8.598;2022-11-20T15:10:22;7.40;99.90
16263;DHT22;8239;48.594;8.598;2022-11-20T15:12:51;7.00;99.90
16263;DHT22;8239;48.594;8.598;2022-11-20T15:15:23;6.70;99.90
16263;DHT22;8239;48.594;8.598;2022-11-20T15:17:52;6.30;99.90
16263;DHT22;8239;48.594;8.598;2022-11-20T15:20:22;5.90;99.90
16263;DHT22;8239;48.594;8.598;2022-11-20T15:22:50;5.70;99.90
16263;DHT22;8239;48.594;8.598;2022-11-20T15:25:18;5.40;99.90
16263;DHT22;8239;48.594;8.598;2022-11-20T15:27:46;5.20;99.90
16263;DHT22;8239;48.594;8.598;2022-11-20T15:30:20;5.00;99.90
16263;DHT22;8239;48.594;8.598;2022-11-20T15:32:47;4.80;99.90
16263;DHT22;8239;48.594;8.598;2022-11-20T15:35:15;4.70;99.90
16263;DHT22;8239;48.594;8.598;2022-11-20T15:37:43;4.60;99.90
16263;DHT22;8239;48.594;8.598;2022-11-20T15:40:11;4.40;99.90
16263;DHT22;8239;48.594;8.598;2022-11-20T15:42:38;4.30;99.90
16263;DHT22;8239;48.594;8.598;2022-11-20T15:45:28;4.30;99.90
16263;DHT22;8239;48.594;8.598;2022-11-20T15:47:56;4.20;99.90
16263;DHT22;8239;48.594;8.598;2022-11-20T15:50:27;4.10;99.90
16263;DHT22;8239;48.594;8.598;2022-11-20T15:52:55;4.10;99.90
16263;DHT22;8239;48.594;8.598;2022-11-20T15:55:23;4.10;99.90
16263;DHT22;8239;48.594;8.598;2022-11-20T15:57:51;4.10;99.90
16263;DHT22;8239;48.594;8.598;2022-11-20T16:00:19;4.10;99.90
16263;DHT22;8239;48.594;8.598;2022-11-20T16:02:55;4.10;99.90
16263;DHT22;8239;48.594;8.598;2022-11-20T16:05:22;4.10;99.90
16263;DHT22;8239;48.594;8.598;2022-11-20T16:07:50;4.10;99.90
16263;DHT22;8239;48.594;8.598;2022-11-20T16:10:17;4.00;99.90
16263;DHT22;8239;48.594;8.598;2022-11-20T16:12:44;4.00;99.90
16263;DHT22;8239;48.594;8.598;2022-11-20T16:15:29;4.00;99.90
16263;DHT22;8239;48.594;8.598;2022-11-20T16:18:17;3.90;99.90
16263;DHT22;8239;48.594;8.598;2022-11-20T16:20:46;3.90;99.90
16263;DHT22;8239;48.594;8.598;2022-11-20T16:23:13;3.90;99.90
16263;DHT22;8239;48.594;8.598;2022-11-20T16:25:41;3.90;99.90
16263;DHT22;8239;48.594;8.598;2022-11-20T16:28:11;3.90;99.90
16263;DHT22;8239;48.594;8.598;2022-11-20T16:30:38;3.80;99.90
16263;DHT22;8239;48.594;8.598;2022-11-20T16:33:09;3.80;99.90